Time;durP1;ratioP1;P1;durP2;ratioP2;P2;SDS_P1;SDS_P2;PMS_P1;PMS_P2;Temp;Humidity;BMP_temperature;BMP_pressure;BME280_temperature;BME280_humidity;BME280_pressure;Samples;Min_cycle;Max_cycle;Signal;HPM_P1;HPM_P2
2023/12/04 00:03:21;;;;;;;28.80;15.70;;;;;;;-1.19;65.90;99688.19;233425;207;147925;-55
2023/12/04 00:08:24;;;;;;;30.60;15.90;;;;;;;-1.17;66.02;99685.05;233262;213;139287;-55
2023/12/04 00:13:28;;;;;;;30.30;14.90;;;;;;;-1.17;66.13;99689.05;234252;212;137172;-56
2023/12/04 00:18:32;;;;;;;28.60;14.60;;;;;;;-1.16;66.34;99689.73;234692;211;148707;-54
2023/12/04 00:23:36;;;;;;;30.80;14.50;;;;;;;-1.13;66.19;99687.81;234671;212;140120;-54
2023/12/04 00:28:39;;;;;;;30.00;14.50;;;;;;;-1.12;66.44;99686.06;234153;212;138125;-57
2023/12/04 00:33:42;;;;;;;28.40;15.20;;;;;;;-1.15;66.48;99687.48;233885;208;147674;-55
2023/12/04 00:38:45;;;;;;;26.20;14.10;;;;;;;-1.14;66.64;99689.73;234256;211;140298;-55
2023/12/04 00:43:49;;;;;;;26.80;14.70;;;;;;;-1.12;66.82;99689.38;234639;211;138851;-56
2023/12/04 00:48:52;;;;;;;27.90;14.50;;;;;;;-1.15;67.01;99692.36;234641;212;147722;-55
2023/12/04 00:53:55;;;;;;;27.50;14.80;;;;;;;-1.16;67.12;99688.35;232649;212;139812;-55
2023/12/04 00:58:59;;;;;;;31.30;14.60;;;;;;;-1.16;67.20;99687.47;234145;207;137083;-53
2023/12/04 01:04:03;;;;;;;28.80;14.40;;;;;;;-1.19;67.28;99692.37;233966;208;148704;-53
2023/12/04 01:09:06;;;;;;;27.20;14.20;;;;;;;-1.16;67.47;99688.36;233625;212;139584;-54
2023/12/04 01:14:09;;;;;;;26.40;14.60;;;;;;;-1.16;67.35;99681.55;234608;212;138434;-54
2023/12/04 01:19:13;;;;;;;29.00;16.00;;;;;;;-1.23;67.27;99676.71;234613;207;148131;-54
2023/12/04 01:24:16;;;;;;;30.40;15.30;;;;;;;-1.28;67.33;99678.13;234647;212;138855;-53
2023/12/04 01:29:19;;;;;;;27.70;14.90;;;;;;;-1.31;67.37;99679.18;234643;212;136861;-53
2023/12/04 01:34:23;;;;;;;27.40;15.00;;;;;;;-1.38;67.14;99682.86;234205;208;148390;-54
2023/12/04 01:39:26;;;;;;;28.80;15.40;;;;;;;-1.44;67.07;99687.40;233389;212;138963;-54
2023/12/04 01:44:29;;;;;;;28.90;16.00;;;;;;;-1.49;67.04;99691.24;233774;212;136792;-52
2023/12/04 01:49:33;;;;;;;27.50;14.70;;;;;;;-1.54;67.42;99690.91;233843;212;147487;-58
2023/12/04 01:54:36;;;;;;;24.50;14.10;;;;;;;-1.53;67.54;99692.66;234675;215;139499;-55
2023/12/04 01:59:39;;;;;;;23.60;13.70;;;;;;;-1.58;67.57;99695.98;234857;215;137773;-56
2023/12/04 02:04:43;;;;;;;29.60;14.30;;;;;;;-1.65;67.75;99706.23;234038;213;147746;-55
2023/12/04 02:09:46;;;;;;;27.60;15.30;;;;;;;-1.70;67.95;99698.95;234444;215;138831;-54
2023/12/04 02:14:50;;;;;;;31.10;15.60;;;;;;;-1.61;68.24;99693.55;234488;215;137564;-57
2023/12/04 02:19:54;;;;;;;30.40;16.10;;;;;;;-1.54;68.20;99698.92;234523;213;147796;-57
2023/12/04 02:24:59;;;;;;;29.80;15.50;;;;;;;-1.44;68.09;99700.98;234381;208;138723;-57
2023/12/04 02:30:06;;;;;;;29.80;15.60;;;;;;;-1.32;68.15;99699.02;233977;212;137941;-58
2023/12/04 02:35:10;;;;;;;26.20;14.50;;;;;;;-1.28;67.61;99695.71;233532;213;147205;-57
2023/12/04 02:40:14;;;;;;;24.70;14.80;;;;;;;-1.27;67.73;99691.52;234070;215;138705;-56
2023/12/04 02:45:17;;;;;;;23.20;13.30;;;;;;;-1.24;67.81;99690.81;234367;207;138369;-57
2023/12/04 02:50:20;;;;;;;24.70;13.50;;;;;;;-1.28;67.77;99687.36;233536;212;147862;-55
2023/12/04 02:55:23;;;;;;;24.60;13.90;;;;;;;-1.28;68.04;99683.01;234553;215;140483;-57
2023/12/04 03:00:27;;;;;;;24.70;13.00;;;;;;;-1.31;68.33;99685.10;233746;215;137198;-56
2023/12/04 03:05:30;;;;;;;28.80;14.10;;;;;;;-1.33;68.39;99687.71;233998;212;148372;-55
2023/12/04 03:10:33;;;;;;;25.40;13.30;;;;;;;-1.38;68.58;99692.27;234242;215;139350;-55
2023/12/04 03:15:36;;;;;;;22.60;12.60;;;;;;;-1.37;68.82;99702.34;233603;213;136877;-57
2023/12/04 03:20:40;;;;;;;23.90;14.00;;;;;;;-1.37;68.95;99695.21;234553;215;147600;-56
2023/12/04 03:25:43;;;;;;;20.60;11.60;;;;;;;-1.35;69.17;99703.38;234559;213;138820;-58
2023/12/04 03:30:46;;;;;;;25.10;12.50;;;;;;;-1.32;69.22;99707.39;234547;215;137735;-56
2023/12/04 03:35:49;;;;;;;18.10;11.20;;;;;;;-1.22;69.29;99708.91;234132;215;149903;-54
2023/12/04 03:40:52;;;;;;;20.70;11.50;;;;;;;-1.09;69.07;99708.69;233753;213;139971;-56
2023/12/04 03:45:56;;;;;;;17.50;11.50;;;;;;;-0.98;68.89;99706.02;233992;213;137398;-54
2023/12/04 03:50:59;;;;;;;20.70;10.70;;;;;;;-0.92;68.62;99699.20;233451;213;148455;-55
2023/12/04 03:56:03;;;;;;;17.60;10.90;;;;;;;-0.92;68.32;99701.64;234510;215;138649;-58
2023/12/04 04:01:07;;;;;;;16.40;10.50;;;;;;;-0.91;68.35;99707.38;234341;215;137464;-55
2023/12/04 04:06:10;;;;;;;16.90;10.90;;;;;;;-0.89;68.08;99711.38;234141;210;148262;-57
2023/12/04 04:11:13;;;;;;;16.20;10.20;;;;;;;-0.95;68.23;99718.73;234577;212;138905;-54
2023/12/04 04:16:16;;;;;;;16.70;10.00;;;;;;;-0.93;68.20;99720.28;234531;215;138331;-56
2023/12/04 04:21:19;;;;;;;17.30;10.80;;;;;;;-0.94;68.15;99718.55;234458;212;148730;-55
2023/12/04 04:26:23;;;;;;;16.30;10.80;;;;;;;-0.97;68.00;99727.96;234619;212;140403;-56
2023/12/04 04:31:26;;;;;;;17.60;10.70;;;;;;;-1.02;68.11;99727.64;234574;212;138082;-57
2023/12/04 04:36:29;;;;;;;17.00;10.60;;;;;;;-1.05;67.99;99726.08;234014;215;147681;-56
2023/12/04 04:41:33;;;;;;;17.30;11.50;;;;;;;-1.13;68.11;99730.13;234204;212;138984;-57
2023/12/04 04:46:36;;;;;;;21.50;12.40;;;;;;;-1.15;68.34;99734.83;234440;215;137266;-57
2023/12/04 04:51:40;;;;;;;24.20;13.30;;;;;;;-1.15;68.51;99732.23;234453;215;148690;-57
2023/12/04 04:56:43;;;;;;;21.70;12.90;;;;;;;-1.16;68.58;99738.67;234661;213;139732;-58
2023/12/04 05:01:46;;;;;;;21.10;13.10;;;;;;;-1.17;68.66;99735.36;234552;215;138452;-54
2023/12/04 05:06:50;;;;;;;25.80;14.30;;;;;;;-1.17;68.43;99735.36;234354;207;147584;-56
2023/12/04 05:11:53;;;;;;;20.60;14.00;;;;;;;-1.21;68.68;99738.50;233828;212;139733;-55
2023/12/04 05:16:56;;;;;;;22.80;13.20;;;;;;;-1.25;68.57;99735.38;233826;213;137907;-57
2023/12/04 05:21:59;;;;;;;24.50;13.00;;;;;;;-1.29;68.57;99736.95;233859;207;150722;-55
2023/12/04 05:27:04;;;;;;;22.90;13.50;;;;;;;-1.36;68.73;99742.73;233897;215;139047;-55
2023/12/04 05:32:07;;;;;;;20.80;13.60;;;;;;;-1.42;68.97;99734.73;234415;215;137639;-54
2023/12/04 05:37:10;;;;;;;24.80;14.10;;;;;;;-1.47;68.89;99737.70;234289;212;148415;-54
2023/12/04 05:42:13;;;;;;;19.90;13.00;;;;;;;-1.55;69.29;99738.77;234676;215;139070;-56
2023/12/04 05:47:16;;;;;;;20.70;13.20;;;;;;;-1.60;69.59;99739.29;234595;215;137614;-56
2023/12/04 05:52:20;;;;;;;35.10;21.80;;;;;;;-1.46;70.56;99739.96;234670;215;147412;-53
2023/12/04 05:57:23;;;;;;;23.80;13.50;;;;;;;-1.36;69.79;99737.16;234436;213;138939;-55
2023/12/04 06:02:29;;;;;;;20.10;12.70;;;;;;;-1.47;69.57;99746.05;234576;213;138687;-56
2023/12/04 06:07:33;;;;;;;22.60;13.40;;;;;;;-1.43;69.79;99746.91;234665;213;147521;-55
2023/12/04 06:12:37;;;;;;;22.30;13.20;;;;;;;-1.37;69.57;99750.21;233882;207;140183;-56
2023/12/04 06:17:40;;;;;;;21.90;13.40;;;;;;;-1.33;69.61;99752.45;234707;211;136830;-54
2023/12/04 06:22:44;;;;;;;216.40;130.20;;;;;;;-1.35;69.52;99750.02;234604;215;148063;-55
2023/12/04 06:27:47;;;;;;;24.70;15.10;;;;;;;-1.24;70.76;99751.05;234538;215;139471;-57
2023/12/04 06:32:51;;;;;;;21.00;13.80;;;;;;;-1.22;69.37;99759.40;234259;213;137572;-57
2023/12/04 06:37:55;;;;;;;20.80;13.30;;;;;;;-1.35;68.52;99757.86;233627;213;149080;-55
2023/12/04 06:42:58;;;;;;;29.10;14.10;;;;;;;-1.43;68.76;99757.88;233595;212;139910;-56
2023/12/04 06:48:03;;;;;;;22.40;13.90;;;;;;;-1.50;69.06;99762.41;234119;212;142210;-54
2023/12/04 06:53:33;;;;;;;25.60;16.40;;;;;;;-1.36;71.34;99752.46;233570;215;147559;-57
2023/12/04 06:58:36;;;;;;;25.10;16.20;;;;;;;-1.25;68.45;99749.31;234452;213;138877;-57
2023/12/04 07:03:39;;;;;;;24.80;14.60;;;;;;;-1.48;67.84;99761.20;234529;215;137296;-58
2023/12/04 07:08:43;;;;;;;25.90;14.90;;;;;;;-1.63;67.86;99760.52;233644;215;149280;-57
2023/12/04 07:13:46;;;;;;;31.30;16.00;;;;;;;-1.70;67.68;99762.79;234417;215;139552;-58
2023/12/04 07:18:49;;;;;;;27.90;16.00;;;;;;;-1.86;66.72;99765.59;234570;215;137305;-54
2023/12/04 07:23:52;;;;;;;29.70;17.30;;;;;;;-2.06;65.94;99769.58;234613;215;147605;-57
2023/12/04 07:28:55;;;;;;;30.70;17.00;;;;;;;-2.24;65.95;99769.73;234413;215;140468;-56
2023/12/04 07:34:01;;;;;;;33.80;17.40;;;;;;;-2.35;65.96;99771.45;234483;213;136914;-56
2023/12/04 07:39:08;;;;;;;28.10;17.70;;;;;;;-2.48;65.71;99766.90;234445;215;148444;-56
2023/12/04 07:44:12;;;;;;;29.10;18.80;;;;;;;-2.56;65.48;99767.59;234530;215;139188;-53
2023/12/04 07:49:15;;;;;;;40.30;20.30;;;;;;;-2.64;65.49;99765.84;234654;215;137309;-54
2023/12/04 07:54:18;;;;;;;35.80;21.10;;;;;;;-2.69;65.67;99768.58;234626;212;148173;-57
2023/12/04 07:59:22;;;;;;;53.20;31.70;;;;;;;-2.63;66.79;99772.95;234740;215;139258;-57
2023/12/04 08:04:25;;;;;;;37.50;23.00;;;;;;;-2.57;65.07;99783.56;234562;215;137272;-56
2023/12/04 08:09:28;;;;;;;37.30;22.80;;;;;;;-2.78;64.26;99781.41;234199;213;148024;-53
2023/12/04 08:14:32;;;;;;;42.30;23.30;;;;;;;-2.96;63.94;99780.64;234188;214;141079;-56
2023/12/04 08:19:37;;;;;;;39.20;23.90;;;;;;;-3.03;64.32;99774.70;234435;215;137844;-56
2023/12/04 08:24:41;;;;;;;43.80;25.60;;;;;;;-3.08;64.42;99770.69;234238;213;148604;-57
2023/12/04 08:29:45;;;;;;;46.10;25.50;;;;;;;-3.11;64.51;99772.59;234698;215;138736;-57
2023/12/04 08:34:48;;;;;;;50.00;27.40;;;;;;;-3.12;64.29;99767.90;234242;215;138085;-56
2023/12/04 08:39:51;;;;;;;50.10;27.90;;;;;;;-3.08;64.27;99766.01;233101;212;147562;-51
2023/12/04 08:44:57;;;;;;;48.30;27.80;;;;;;;-3.06;64.42;99770.19;233232;211;140344;-54
2023/12/04 08:50:01;;;;;;;44.30;26.30;;;;;;;-3.01;64.43;99775.75;234209;214;138002;-55
2023/12/04 08:55:06;;;;;;;41.90;26.00;;;;;;;-2.96;64.57;99786.20;234062;215;147412;-54
2023/12/04 09:00:09;;;;;;;41.30;24.70;;;;;;;-2.90;64.71;99784.84;234750;215;138658;-55
2023/12/04 09:05:13;;;;;;;43.50;25.00;;;;;;;-2.79;64.61;99779.15;234542;215;137077;-56
2023/12/04 09:10:16;;;;;;;45.20;27.30;;;;;;;-2.66;64.69;99785.62;234402;211;148971;-55
2023/12/04 09:15:40;;;;;;;45.80;26.90;;;;;;;-2.51;64.51;99774.72;234477;215;138981;-56
2023/12/04 09:20:43;;;;;;;46.80;28.00;;;;;;;-2.37;64.41;99777.02;234543;214;138507;-56
2023/12/04 09:25:46;;;;;;;45.50;27.70;;;;;;;-2.17;64.28;99769.73;234573;214;147178;-55
2023/12/04 09:30:49;;;;;;;43.20;28.30;;;;;;;-1.95;64.00;99766.63;234319;211;141452;-54
2023/12/04 09:35:53;;;;;;;46.30;29.90;;;;;;;-1.79;63.67;99752.36;234425;212;137591;-55
2023/12/04 09:41:01;;;;;;;49.90;29.60;;;;;;;-1.55;63.84;99743.98;234077;213;148825;-57
2023/12/04 09:46:05;;;;;;;51.30;29.80;;;;;;;-1.30;63.73;99734.52;234075;212;139089;-55
2023/12/04 09:51:09;;;;;;;47.30;29.80;;;;;;;-1.07;63.65;99728.86;234247;209;137699;-55
2023/12/04 09:56:15;;;;;;;43.80;26.40;;;;;;;-0.85;63.42;99727.21;234058;208;147295;-56
2023/12/04 10:01:19;;;;;;;43.70;26.50;;;;;;;-0.59;63.27;99722.20;234053;213;139687;-54
2023/12/04 10:06:27;;;;;;;26.80;16.60;;;;;;;-0.22;64.51;99710.25;234281;213;136863;-54
2023/12/04 10:11:31;;;;;;;22.30;14.40;;;;;;;0.27;63.49;99696.77;234478;211;147259;-57
2023/12/04 10:16:36;;;;;;;22.60;14.10;;;;;;;0.68;63.03;99686.90;233922;208;139096;-54
2023/12/04 10:21:39;;;;;;;30.10;19.00;;;;;;;1.07;62.31;99674.01;234311;213;137313;-55
2023/12/04 10:26:51;;;;;;;34.70;19.90;;;;;;;1.35;61.69;99666.80;234302;212;148912;-52
2023/12/04 10:31:55;;;;;;;14.40;9.00;;;;;;;1.55;60.39;99665.79;234218;215;139923;-52
2023/12/04 10:36:59;;;;;;;17.30;10.40;;;;;;;1.76;59.25;99664.26;234136;215;136384;-54
2023/12/04 10:42:03;;;;;;;16.80;9.20;;;;;;;1.86;58.88;99665.30;234184;213;148347;-54
2023/12/04 10:47:07;;;;;;;15.80;10.10;;;;;;;1.84;58.04;99659.91;234267;213;139485;-57
2023/12/04 10:52:10;;;;;;;15.80;9.30;;;;;;;1.83;57.85;99650.84;234344;213;136859;-53
2023/12/04 10:57:22;;;;;;;13.40;8.30;;;;;;;1.91;57.34;99641.61;234341;213;147631;-52
2023/12/04 11:02:28;;;;;;;13.30;8.80;;;;;;;1.93;57.44;99638.08;234269;213;138751;-54
2023/12/04 11:07:35;;;;;;;12.40;8.40;;;;;;;1.91;57.05;99632.14;234342;213;138404;-54
2023/12/04 11:13:09;;;;;;;11.80;8.10;;;;;;;1.93;56.59;99625.45;234282;213;148445;-55
2023/12/04 11:18:14;;;;;;;15.30;9.10;;;;;;;1.89;56.74;99622.73;234347;208;138902;-55
2023/12/04 11:23:19;;;;;;;13.40;8.60;;;;;;;1.86;56.50;99617.19;234369;213;267164;-54
2023/12/04 11:28:23;;;;;;;13.30;9.10;;;;;;;1.86;56.49;99609.66;234261;209;147577;-54
2023/12/04 11:33:26;;;;;;;13.30;8.90;;;;;;;1.89;56.02;99610.14;234246;213;139551;-52
2023/12/04 11:38:30;;;;;;;15.40;8.80;;;;;;;1.89;56.00;99608.39;234239;209;136708;-54
2023/12/04 11:43:34;;;;;;;14.70;9.40;;;;;;;1.87;55.82;99606.33;234339;211;148725;-54
2023/12/04 11:48:38;;;;;;;15.10;9.60;;;;;;;1.86;56.42;99597.96;234185;208;139486;-54
2023/12/04 11:53:44;;;;;;;166.70;86.00;;;;;;;1.82;56.84;99596.27;234368;213;137201;-52
2023/12/04 11:58:47;;;;;;;18.80;11.00;;;;;;;1.95;56.39;99590.97;234307;213;148220;-54
2023/12/04 12:03:51;;;;;;;16.40;10.00;;;;;;;1.97;55.62;99585.86;234346;207;139037;-55
2023/12/04 12:08:55;;;;;;;13.80;8.50;;;;;;;1.97;55.22;99577.98;234295;212;137007;-54
2023/12/04 12:13:59;;;;;;;12.60;8.30;;;;;;;1.96;54.97;99569.77;234341;208;148323;-55
2023/12/04 12:19:02;;;;;;;16.90;9.20;;;;;;;1.95;54.97;99571.19;234506;212;140682;-53
2023/12/04 12:24:11;;;;;;;14.30;7.80;;;;;;;1.95;55.01;99565.77;234717;212;136624;-53
2023/12/04 12:29:16;;;;;;;13.60;8.10;;;;;;;2.03;54.73;99556.35;234091;212;147938;-54
2023/12/04 12:34:19;;;;;;;12.40;7.60;;;;;;;2.11;54.63;99553.91;234447;213;138950;-56
2023/12/04 12:39:22;;;;;;;12.10;7.90;;;;;;;2.21;54.52;99550.57;234144;212;137406;-55
2023/12/04 12:44:27;;;;;;;13.30;7.60;;;;;;;2.29;53.90;99541.83;234491;212;147253;-55
2023/12/04 12:49:30;;;;;;;13.40;7.80;;;;;;;2.33;53.37;99540.86;233602;208;139795;-54
2023/12/04 12:54:44;;;;;;;14.80;8.40;;;;;;;2.32;53.02;99536.52;233377;207;136820;-52
2023/12/04 12:59:47;;;;;;;14.40;9.50;;;;;;;2.34;52.93;99528.08;233781;208;148064;-53
2023/12/04 13:04:50;;;;;;;14.90;9.80;;;;;;;2.28;53.22;99516.30;233189;212;138753;-51
2023/12/04 13:09:54;;;;;;;13.90;9.30;;;;;;;2.12;53.64;99511.00;234600;212;139452;-54
2023/12/04 13:14:57;;;;;;;16.50;9.30;;;;;;;2.02;53.15;99506.14;234560;207;147569;-54
2023/12/04 13:20:00;;;;;;;14.40;9.70;;;;;;;2.02;53.43;99498.62;234459;212;141446;-51
2023/12/04 13:25:07;;;;;;;15.70;8.90;;;;;;;1.93;53.39;99501.77;233981;212;137422;-55
2023/12/04 13:30:10;;;;;;;14.80;9.40;;;;;;;1.88;53.66;99498.20;234606;213;148152;-54
2023/12/04 13:35:14;;;;;;;15.90;10.60;;;;;;;1.80;54.16;99499.75;233159;213;139507;-53
2023/12/04 13:40:17;;;;;;;17.00;10.80;;;;;;;1.72;54.50;99499.90;233643;208;137660;-52
2023/12/04 13:45:21;;;;;;;18.90;10.80;;;;;;;1.65;54.69;99492.52;234071;215;148736;-55
2023/12/04 13:50:25;;;;;;;22.10;13.80;;;;;;;1.49;55.22;99490.19;234209;212;138951;-53
2023/12/04 14:00:41;;;;;;;20.00;13.10;;;;;;;1.25;55.66;99482.39;233926;211;148577;-52
2023/12/04 14:05:44;;;;;;;21.00;12.10;;;;;;;1.13;55.89;99478.04;234193;213;138753;-59
2023/12/04 14:10:48;;;;;;;17.50;11.10;;;;;;;1.06;56.00;99472.73;234211;215;137914;-55
2023/12/04 14:15:51;;;;;;;21.60;11.30;;;;;;;0.93;56.67;99473.48;234426;213;147448;-53
2023/12/04 14:20:55;;;;;;;20.90;12.20;;;;;;;0.79;57.24;99473.36;234212;213;139915;-53
2023/12/04 14:25:59;;;;;;;20.10;12.80;;;;;;;0.65;57.54;99466.08;234230;213;136610;-53
2023/12/04 14:31:02;;;;;;;20.70;13.40;;;;;;;0.54;57.72;99464.65;234299;213;148785;-54
2023/12/04 14:36:06;;;;;;;21.20;13.30;;;;;;;0.47;57.86;99466.34;234350;213;137965;-52
2023/12/04 14:41:09;;;;;;;24.80;13.40;;;;;;;0.39;58.06;99457.54;234279;214;137668;-54
2023/12/04 14:46:13;;;;;;;21.10;13.80;;;;;;;0.27;58.42;99450.55;234147;213;147662;-53
2023/12/04 14:51:17;;;;;;;21.90;13.50;;;;;;;0.18;58.34;99454.34;234212;213;139433;-51
2023/12/04 15:17:50;;;;;;;24.90;15.30;;;;;;;-0.28;58.72;99444.27;234319;212;147312;-53
2023/12/04 15:22:55;;;;;;;29.00;17.20;;;;;;;-0.29;59.26;99446.39;234061;214;138490;-55
2023/12/04 15:28:01;;;;;;;104.00;58.90;;;;;;;-0.19;59.03;99443.64;234184;212;137748;-55
2023/12/04 15:33:04;;;;;;;37.70;20.00;;;;;;;-0.18;58.90;99447.64;234198;212;148320;-53
2023/12/04 15:38:08;;;;;;;32.60;18.50;;;;;;;-0.36;58.48;99444.19;233685;213;138798;-54
2023/12/04 15:43:12;;;;;;;37.80;19.70;;;;;;;-0.50;58.72;99437.56;234191;215;136900;-54
2023/12/04 15:48:15;;;;;;;32.40;18.50;;;;;;;-0.62;59.02;99427.58;234250;208;147336;-56
2023/12/04 15:53:18;;;;;;;34.10;19.60;;;;;;;-0.66;59.43;99420.83;234230;213;139528;-54
2023/12/04 15:58:21;;;;;;;37.90;19.80;;;;;;;-0.72;59.47;99422.29;234179;209;138044;-55
2023/12/04 16:03:24;;;;;;;36.20;20.40;;;;;;;-0.84;59.55;99414.04;234297;208;149294;-53
2023/12/04 16:08:28;;;;;;;36.70;20.30;;;;;;;-0.84;59.97;99412.29;234275;213;139173;-54
2023/12/04 16:13:31;;;;;;;37.50;19.30;;;;;;;-0.82;60.05;99408.80;233940;208;137492;-56
2023/12/04 16:18:35;;;;;;;34.50;20.30;;;;;;;-0.86;60.02;99403.09;234041;213;148068;-56
2023/12/04 16:23:38;;;;;;;40.30;20.40;;;;;;;-0.92;59.97;99398.44;234419;214;138763;-57
2023/12/04 16:28:42;;;;;;;41.70;22.30;;;;;;;-1.03;59.92;99399.07;234380;213;138418;-58
2023/12/04 16:33:45;;;;;;;41.10;21.80;;;;;;;-1.13;59.89;99393.43;234424;215;147934;-58
2023/12/04 16:38:48;;;;;;;38.50;22.40;;;;;;;-1.21;60.13;99397.31;233682;213;139615;-57
2023/12/04 16:43:51;;;;;;;39.60;22.00;;;;;;;-1.26;60.23;99393.36;233438;212;137635;-57
2023/12/04 16:48:55;;;;;;;42.20;22.20;;;;;;;-1.27;60.65;99392.15;234416;213;148613;-56
2023/12/04 16:53:58;;;;;;;35.80;21.30;;;;;;;-1.22;60.96;99394.72;234522;213;138936;-55
2023/12/04 16:59:02;;;;;;;35.60;20.60;;;;;;;-1.20;61.16;99393.13;234353;215;138146;-58
2023/12/04 17:04:05;;;;;;;35.20;20.40;;;;;;;-1.16;61.40;99381.10;234368;213;147949;-57
2023/12/04 17:09:14;;;;;;;36.90;20.90;;;;;;;-1.10;61.31;99373.73;233819;208;138798;-55
2023/12/04 17:14:18;;;;;;;39.20;21.90;;;;;;;-1.10;61.12;99369.37;234361;212;138245;-58
2023/12/04 17:19:22;;;;;;;37.10;21.40;;;;;;;-1.16;61.24;99359.68;234426;213;150237;-58
2023/12/04 17:24:25;;;;;;;40.70;22.90;;;;;;;-1.19;61.33;99354.48;234226;213;138811;-64
2023/12/04 17:29:29;;;;;;;41.40;23.70;;;;;;;-1.22;61.37;99354.17;234528;213;137415;-58
2023/12/04 17:34:32;;;;;;;42.60;23.60;;;;;;;-1.24;61.45;99340.26;234378;208;147719;-56
2023/12/04 17:39:36;;;;;;;40.80;22.80;;;;;;;-1.26;61.52;99341.67;233981;212;138866;-55
2023/12/04 17:44:39;;;;;;;45.90;24.20;;;;;;;-1.28;61.53;99342.38;234233;213;137563;-58
2023/12/04 17:49:43;;;;;;;43.70;23.00;;;;;;;-1.31;61.62;99336.85;234439;213;147313;-56
2023/12/04 17:54:46;;;;;;;42.70;24.20;;;;;;;-1.35;61.76;99337.23;234180;213;139118;-58
2023/12/04 17:59:50;;;;;;;43.90;23.90;;;;;;;-1.35;61.91;99338.80;234328;208;136827;-58
2023/12/04 18:04:53;;;;;;;41.50;22.30;;;;;;;-1.36;62.02;99333.40;234146;214;147566;-59
2023/12/04 18:09:57;;;;;;;213.80;60.20;;;;;;;-1.23;65.09;99330.84;234185;213;139862;-57
2023/12/04 18:15:00;;;;;;;46.80;24.70;;;;;;;-0.87;65.87;99315.50;234209;209;137197;-57
2023/12/04 18:20:06;;;;;;;48.50;26.00;;;;;;;-0.99;62.70;99312.15;234214;212;149334;-58
2023/12/04 18:25:10;;;;;;;165.90;34.20;;;;;;;-0.96;65.75;99305.67;234195;209;140163;-55
2023/12/04 18:30:15;;;;;;;97.10;59.00;;;;;;;-0.63;66.17;99298.31;234310;212;138003;-56
2023/12/04 18:35:21;;;;;;;51.30;27.70;;;;;;;-0.47;65.10;99299.85;234227;214;147693;-55
2023/12/04 18:40:25;;;;;;;51.60;27.10;;;;;;;0.13;70.91;99295.59;234097;213;138855;-60
2023/12/04 18:45:28;;;;;;;48.20;25.70;;;;;;;0.39;63.90;99294.36;234144;214;136894;-59
2023/12/04 18:50:33;;;;;;;108.50;61.60;;;;;;;0.44;62.50;99291.83;234189;212;148637;-57
2023/12/04 18:55:36;;;;;;;55.70;27.60;;;;;;;0.28;61.15;99275.52;234028;212;139252;-61
2023/12/04 19:00:40;;;;;;;49.10;26.80;;;;;;;-0.03;60.42;99272.20;233986;214;136689;-58
2023/12/04 19:05:45;;;;;;;54.50;28.30;;;;;;;-0.33;60.19;99269.66;234283;214;147315;-57
2023/12/04 19:10:48;;;;;;;60.60;32.00;;;;;;;-0.57;60.68;99260.08;233792;213;139764;-56
2023/12/04 19:15:51;;;;;;;59.40;31.40;;;;;;;-0.77;60.77;99279.84;234155;212;137804;-58
2023/12/04 19:20:54;;;;;;;49.70;26.80;;;;;;;-0.90;61.30;99267.11;234188;213;147893;-57
2023/12/04 19:25:58;;;;;;;50.50;26.60;;;;;;;-1.02;61.68;99249.84;234190;213;138971;-54
2023/12/04 19:31:03;;;;;;;50.10;26.90;;;;;;;-1.10;61.91;99273.96;234130;214;137814;-59
2023/12/04 19:36:07;;;;;;;51.00;27.70;;;;;;;-1.16;62.03;99269.52;234336;213;147719;-58
2023/12/04 19:41:11;;;;;;;55.10;27.10;;;;;;;-1.26;62.16;99253.77;234154;208;138925;-59
2023/12/04 19:46:14;;;;;;;238.30;135.10;;;;;;;-1.28;63.17;99251.02;234281;212;137057;-59
2023/12/04 19:51:18;;;;;;;63.10;33.40;;;;;;;-1.11;63.38;99236.56;234256;214;147471;-58
2023/12/04 19:56:22;;;;;;;56.60;30.30;;;;;;;-1.17;62.38;99241.32;234198;213;139376;-59
2023/12/04 20:01:26;;;;;;;56.60;30.30;;;;;;;-1.24;62.15;99250.61;234193;213;137111;-58
2023/12/04 20:06:31;;;;;;;92.30;47.80;;;;;;;-1.28;63.27;99249.27;234288;213;148988;-60
2023/12/04 20:11:35;;;;;;;63.50;32.80;;;;;;;-1.24;62.52;99249.05;234417;213;139527;-59
2023/12/04 20:16:38;;;;;;;62.50;33.00;;;;;;;-1.35;62.44;99244.66;234242;213;136671;-57
2023/12/04 20:21:42;;;;;;;58.90;31.90;;;;;;;-1.45;62.69;99241.96;234273;213;148692;-59
2023/12/04 20:26:47;;;;;;;63.30;33.00;;;;;;;-1.51;62.78;99245.67;234163;212;139704;-58
2023/12/04 20:31:50;;;;;;;63.60;34.00;;;;;;;-1.55;62.73;99239.46;234244;214;137129;-58
2023/12/04 20:36:55;;;;;;;69.10;35.60;;;;;;;-1.60;62.74;99240.56;234156;214;147603;-60
2023/12/04 20:41:58;;;;;;;73.30;39.70;;;;;;;-1.61;62.57;99241.80;234278;208;139658;-59
2023/12/04 20:47:03;;;;;;;79.70;37.90;;;;;;;-1.66;62.60;99231.91;234202;208;141403;-57
2023/12/04 20:52:07;;;;;;;84.10;38.80;;;;;;;-1.69;62.74;99229.70;233847;212;148082;-58
2023/12/04 20:57:10;;;;;;;81.70;38.50;;;;;;;-1.71;63.07;99218.58;234187;214;139280;-56
2023/12/04 21:02:13;;;;;;;87.80;39.00;;;;;;;-1.74;63.17;99203.47;234194;212;137899;-58
2023/12/04 21:07:17;;;;;;;81.10;38.50;;;;;;;-1.75;63.15;99197.75;234246;213;148047;-59
2023/12/04 21:12:20;;;;;;;79.50;37.50;;;;;;;-1.78;62.96;99200.02;234043;213;138947;-60
2023/12/04 21:17:23;;;;;;;74.60;37.10;;;;;;;-1.80;62.99;99197.45;233658;215;137384;-58
2023/12/04 21:22:27;;;;;;;66.20;35.10;;;;;;;-1.85;63.17;99186.89;233606;213;147455;-59
2023/12/04 21:27:31;;;;;;;76.00;36.30;;;;;;;-1.86;63.26;99204.98;234180;214;138686;-57
2023/12/04 21:32:34;;;;;;;68.70;34.30;;;;;;;-1.90;63.28;99193.55;234287;213;137776;-59
2023/12/04 21:37:38;;;;;;;67.60;33.10;;;;;;;-1.89;63.45;99181.02;234250;208;148497;-60
2023/12/04 21:42:41;;;;;;;65.50;32.90;;;;;;;-1.87;63.25;99162.40;234154;212;138977;-59
2023/12/04 21:47:45;;;;;;;67.60;34.00;;;;;;;-1.86;63.30;99159.96;234254;208;138139;-59
2023/12/04 21:52:48;;;;;;;69.10;36.40;;;;;;;-1.90;63.05;99163.48;234072;208;147895;-59
2023/12/04 21:57:51;;;;;;;72.90;35.60;;;;;;;-1.93;63.09;99164.72;234124;208;138739;-59
2023/12/04 22:02:55;;;;;;;77.40;37.20;;;;;;;-1.97;63.17;99169.11;233952;214;137093;-61
2023/12/04 22:07:58;;;;;;;66.30;34.60;;;;;;;-1.98;63.30;99168.06;233906;214;146356;-59
2023/12/04 22:13:01;;;;;;;70.80;35.40;;;;;;;-1.98;63.43;99158.16;233893;213;139823;-58
2023/12/04 22:18:04;;;;;;;68.00;35.20;;;;;;;-2.01;63.40;99150.02;234340;215;137240;-61
2023/12/04 22:23:09;;;;;;;72.70;36.00;;;;;;;-2.02;63.44;99144.81;234185;213;147760;-59
2023/12/04 22:28:12;;;;;;;74.30;37.20;;;;;;;-2.02;63.50;99139.94;234226;208;139568;-61
2023/12/04 22:33:15;;;;;;;71.70;36.00;;;;;;;-2.00;63.47;99132.45;233941;209;137111;-59
2023/12/04 22:38:19;;;;;;;69.40;35.80;;;;;;;-1.99;63.42;99133.13;234222;214;147851;-60
2023/12/04 22:43:22;;;;;;;80.30;38.50;;;;;;;-1.99;63.26;99111.41;234246;208;138714;-59
2023/12/04 22:48:26;;;;;;;82.80;40.50;;;;;;;-2.03;63.07;99100.31;234185;213;136941;-65
2023/12/04 22:53:29;;;;;;;78.40;38.60;;;;;;;-2.06;63.15;99103.31;234345;213;148157;-58
2023/12/04 22:58:32;;;;;;;74.20;37.30;;;;;;;-2.08;63.20;99104.71;234045;213;138763;-61
2023/12/04 23:03:35;;;;;;;65.10;34.80;;;;;;;-2.13;63.35;99099.90;234116;214;137407;-60
2023/12/04 23:08:41;;;;;;;65.90;32.80;;;;;;;-2.16;63.82;99099.76;233759;208;147493;-58
2023/12/04 23:13:45;;;;;;;64.80;31.20;;;;;;;-2.10;64.05;99089.98;233846;213;142187;-56
2023/12/04 23:18:48;;;;;;;64.00;29.60;;;;;;;-2.07;64.25;99083.69;234029;213;137359;-58
2023/12/04 23:23:51;;;;;;;59.40;31.50;;;;;;;-2.03;64.31;99083.64;234327;214;149228;-58
2023/12/04 23:28:54;;;;;;;59.80;30.10;;;;;;;-2.01;64.26;99080.65;234190;213;138643;-57
2023/12/04 23:33:58;;;;;;;58.20;29.60;;;;;;;-1.98;64.32;99096.61;234188;214;137599;-56